Time;durP1;ratioP1;P1;durP2;ratioP2;P2;SDS_P1;SDS_P2;PMS_P1;PMS_P2;Temp;Humidity;BMP_temperature;BMP_pressure;BME280_temperature;BME280_humidity;BME280_pressure;Samples;Min_cycle;Max_cycle;Signal;HPM_P1;HPM_P2
2023/06/23 00:01:34;;;;;;;2.80;1.10;;;22.50;99.90;;;22.94;nan;100519.53;4989056;28;20708;-67
2023/06/23 00:04:01;;;;;;;1.40;1.30;;;22.40;99.90;;;22.92;nan;100526.06;4990723;28;20641;-67
2023/06/23 00:06:28;;;;;;;1.70;1.30;;;22.40;99.90;;;22.87;nan;100542.59;4990630;28;20704;-67
2023/06/23 00:08:55;;;;;;;1.10;1.00;;;22.40;99.90;;;22.87;nan;100541.81;4992327;28;20670;-67
2023/06/23 00:11:22;;;;;;;1.53;1.43;;;22.40;99.90;;;22.85;nan;100541.97;4995130;28;20625;-67
2023/06/23 00:13:50;;;;;;;1.53;1.07;;;22.30;99.90;;;22.85;nan;100549.94;4991330;28;20638;-67
2023/06/23 00:16:17;;;;;;;2.57;2.30;;;22.30;99.90;;;22.86;nan;100546.28;4985091;28;21237;-68
2023/06/23 00:18:44;;;;;;;1.70;1.60;;;22.30;99.90;;;22.88;nan;100552.25;4984783;28;20621;-68
2023/06/23 00:21:11;;;;;;;1.33;1.10;;;22.30;99.90;;;22.88;nan;100554.06;4983518;28;20650;-68
2023/06/23 00:23:39;;;;;;;1.97;1.47;;;22.30;99.90;;;22.90;nan;100554.69;4984403;28;21641;-68
2023/06/23 00:26:07;;;;;;;1.50;1.40;;;22.30;99.90;;;22.91;nan;100553.69;4988736;28;21132;-67
2023/06/23 00:28:35;;;;;;;1.80;1.70;;;22.40;99.90;;;22.91;nan;100559.81;4989617;28;20662;-68
2023/06/23 00:31:02;;;;;;;2.37;1.90;;;22.40;99.90;;;22.89;nan;100555.72;4989241;28;20642;-68
2023/06/23 00:33:29;;;;;;;2.40;2.20;;;22.40;99.90;;;22.85;nan;100554.47;4992214;28;20626;-69
2023/06/23 00:35:57;;;;;;;1.73;1.60;;;22.30;99.90;;;22.88;nan;100570.03;4992334;28;20735;-68
2023/06/23 00:38:25;;;;;;;2.37;2.17;;;22.30;99.90;;;22.87;nan;100566.53;4987935;28;20630;-68
2023/06/23 00:40:52;;;;;;;2.77;1.97;;;22.30;99.90;;;22.87;nan;100571.06;4990174;28;20626;-68
2023/06/23 00:43:21;;;;;;;3.27;1.73;;;22.40;99.90;;;22.88;nan;100578.84;4966807;28;20642;-67
2023/06/23 00:45:49;;;;;;;2.50;1.67;;;22.40;99.90;;;22.90;nan;100576.81;4988086;28;21257;-68
2023/06/23 00:48:16;;;;;;;1.73;1.63;;;22.30;99.90;;;22.94;nan;100580.75;4976009;28;20666;-68
2023/06/23 00:50:44;;;;;;;2.10;1.50;;;22.40;99.90;;;22.94;nan;100586.06;4986052;28;20641;-68
2023/06/23 00:53:12;;;;;;;1.60;1.50;;;22.50;99.90;;;22.98;nan;100592.66;4985870;28;20610;-68
2023/06/23 00:55:40;;;;;;;1.60;1.50;;;22.50;99.90;;;22.96;nan;100594.69;4987833;28;20673;-68
2023/06/23 00:58:09;;;;;;;1.73;1.63;;;22.50;99.90;;;22.89;nan;100593.78;4988981;28;21552;-68
2023/06/23 01:00:36;;;;;;;2.20;1.50;;;22.30;99.90;;;22.87;nan;100606.44;4992450;28;20650;-68
2023/06/23 01:03:04;;;;;;;1.50;1.40;;;22.30;99.90;;;22.90;nan;100614.06;4964324;28;20642;-67
2023/06/23 01:05:35;;;;;;;1.83;1.63;;;22.30;99.90;;;22.91;nan;100633.53;4991290;28;20674;-68
2023/06/23 01:08:22;;;;;;;1.60;1.40;;;22.40;99.90;;;22.92;nan;100624.50;4975654;28;20655;-68
2023/06/23 01:11:06;;;;;;;1.30;1.30;;;22.40;99.90;;;22.84;nan;100628.13;4992082;28;20645;-68
2023/06/23 01:13:46;;;;;;;1.90;1.80;;;22.30;99.90;;;22.80;nan;100647.31;4971217;28;21228;-69
2023/06/23 01:16:21;;;;;;;2.33;1.90;;;22.30;99.90;;;22.71;nan;100649.28;4982624;28;20661;-67
2023/06/23 01:19:14;;;;;;;1.77;1.63;;;22.20;99.90;;;22.70;nan;100657.44;4998538;28;20649;-67
2023/06/23 01:21:53;;;;;;;4.40;2.30;;;22.10;99.90;;;22.68;nan;100656.81;4986051;28;20630;-67
2023/06/23 01:24:52;;;;;;;2.77;2.00;;;22.10;99.90;;;22.65;nan;100659.84;4969562;28;20626;-64
2023/06/23 01:27:40;;;;;;;2.53;1.60;;;22.10;99.90;;;22.66;nan;100667.63;4975614;28;20626;-68
2023/06/23 01:30:12;;;;;;;2.30;1.20;;;22.10;99.90;;;22.65;nan;100671.31;4991743;28;20646;-68
2023/06/23 01:32:48;;;;;;;2.83;2.43;;;22.10;99.90;;;22.65;nan;100673.97;4996557;28;20637;-67
2023/06/23 01:35:26;;;;;;;4.20;2.70;;;22.10;99.90;;;22.65;nan;100671.31;4990204;28;20670;-68
2023/06/23 01:38:03;;;;;;;3.40;2.37;;;22.10;99.90;;;22.63;nan;100670.66;4954149;28;20642;-67
2023/06/23 01:40:32;;;;;;;3.17;2.30;;;22.10;99.90;;;22.66;nan;100677.47;4983686;28;21177;-68
2023/06/23 01:43:04;;;;;;;2.20;1.90;;;22.10;99.90;;;22.70;nan;100674.22;4995953;28;20646;-69
2023/06/23 01:45:31;;;;;;;1.70;1.60;;;22.10;99.90;;;22.74;nan;100682.66;4991909;28;20674;-65
2023/06/23 01:48:03;;;;;;;2.40;2.20;;;22.10;99.90;;;22.77;nan;100688.41;4990842;28;20651;-68
2023/06/23 01:50:32;;;;;;;2.50;2.30;;;22.20;99.90;;;22.81;nan;100687.03;4974132;28;21434;-67
2023/06/23 01:53:01;;;;;;;2.57;2.37;;;22.20;99.90;;;22.83;nan;100694.84;4983482;28;20630;-68
2023/06/23 01:55:30;;;;;;;3.70;2.83;;;22.20;99.90;;;22.85;nan;100687.50;4988756;28;20673;-68
2023/06/23 01:58:00;;;;;;;3.07;2.10;;;22.30;99.90;;;22.85;nan;100684.84;4987939;28;21000;-67
2023/06/23 02:00:28;;;;;;;2.30;2.10;;;22.30;99.90;;;22.88;nan;100695.09;4989131;28;20642;-67
2023/06/23 02:02:57;;;;;;;2.07;1.97;;;22.30;99.90;;;22.87;nan;100688.94;4986139;28;20619;-65
2023/06/23 02:05:26;;;;;;;2.53;2.33;;;22.30;99.90;;;22.86;nan;100687.28;4950335;28;20644;-66
2023/06/23 02:07:55;;;;;;;2.43;2.23;;;22.30;99.90;;;22.85;nan;100682.97;4970412;28;20642;-67
2023/06/23 02:10:24;;;;;;;2.40;2.00;;;22.30;99.90;;;22.86;nan;100683.81;4989321;28;20629;-66
2023/06/23 02:12:55;;;;;;;1.90;1.80;;;22.30;99.90;;;22.87;nan;100683.59;4987987;28;20644;-65
2023/06/23 02:15:24;;;;;;;2.00;1.90;;;22.30;99.90;;;22.87;nan;100680.94;4972697;28;20666;-67
2023/06/23 02:17:52;;;;;;;2.60;2.07;;;22.30;99.90;;;22.81;nan;100686.19;4988043;28;20661;-67
2023/06/23 02:20:23;;;;;;;2.60;2.20;;;22.30;99.90;;;22.76;nan;100680.63;4970894;28;20626;-67
2023/06/23 02:22:52;;;;;;;2.07;1.63;;;22.20;99.90;;;22.69;nan;100677.06;4988684;28;20627;-68
2023/06/23 02:25:20;;;;;;;4.67;1.73;;;22.20;99.90;;;22.64;nan;100674.97;4970648;28;21123;-68
2023/06/23 02:27:48;;;;;;;2.83;2.43;;;22.10;99.90;;;22.64;nan;100679.44;4988677;28;20664;-65
2023/06/23 02:30:19;;;;;;;3.90;2.90;;;22.10;99.90;;;22.65;nan;100678.44;4967561;28;21199;-67
2023/06/23 02:32:47;;;;;;;2.60;2.10;;;22.10;99.90;;;22.61;nan;100671.88;4976859;28;20635;-68
2023/06/23 02:35:15;;;;;;;1.57;1.40;;;22.10;99.90;;;22.58;nan;100674.84;4976196;28;20646;-68
2023/06/23 02:37:49;;;;;;;2.80;2.43;;;22.10;99.90;;;22.50;nan;100689.09;4994876;28;21275;-67
2023/06/23 02:40:18;;;;;;;3.50;2.80;;;22.00;99.90;;;22.49;nan;100681.31;4975768;28;21264;-68
2023/06/23 02:43:17;;;;;;;2.00;1.90;;;21.90;99.90;;;22.47;nan;100684.13;4970381;28;20653;-68
2023/06/23 02:45:50;;;;;;;4.17;1.47;;;21.90;99.90;;;22.44;nan;100689.00;4975466;28;20658;-67
2023/06/23 02:48:23;;;;;;;2.10;2.00;;;21.90;99.90;;;22.43;nan;100685.50;4983985;28;21259;-67
2023/06/23 02:50:53;;;;;;;2.97;2.70;;;21.90;99.90;;;22.44;nan;100687.19;4987791;28;20623;-69
2023/06/23 02:53:29;;;;;;;2.60;2.40;;;21.90;99.90;;;22.43;nan;100690.81;4981825;28;21073;-70
2023/06/23 02:56:03;;;;;;;2.00;1.90;;;21.90;99.90;;;22.39;nan;100694.88;4972541;28;20666;-67
2023/06/23 02:58:32;;;;;;;1.97;1.60;;;21.80;99.90;;;22.37;nan;100691.56;4987816;28;20630;-68
2023/06/23 03:01:04;;;;;;;3.47;2.67;;;21.80;99.90;;;22.34;nan;100699.91;4973304;28;20629;-67
2023/06/23 03:03:33;;;;;;;2.10;2.00;;;21.80;99.90;;;22.29;nan;100708.47;4997140;28;20613;-67
2023/06/23 03:06:00;;;;;;;2.57;2.33;;;21.70;99.90;;;22.27;nan;100725.59;4978417;28;21253;-69
2023/06/23 03:08:28;;;;;;;3.40;2.57;;;21.70;99.90;;;22.27;nan;100722.94;4992199;28;20670;-68
2023/06/23 03:10:55;;;;;;;3.00;2.47;;;21.70;99.90;;;22.24;nan;100733.91;4973189;28;20638;-67
2023/06/23 03:13:22;;;;;;;3.53;3.23;;;21.70;99.90;;;22.25;nan;100732.94;4991758;28;20708;-68
2023/06/23 03:15:54;;;;;;;0.87;0.83;;;21.70;99.90;;;22.24;nan;100733.91;4991691;28;20669;-67
2023/06/23 03:18:27;;;;;;;2.90;2.60;;;21.70;99.90;;;22.21;nan;100742.28;4990254;28;20704;-67
2023/06/23 03:20:59;;;;;;;2.57;2.40;;;21.70;99.90;;;22.22;nan;100743.91;4970444;28;20629;-66
2023/06/23 03:23:27;;;;;;;3.50;2.87;;;21.60;99.90;;;22.24;nan;100747.22;4973242;28;20695;-68
2023/06/23 03:25:55;;;;;;;2.43;2.33;;;21.70;99.90;;;22.28;nan;100751.16;4989689;28;20661;-67
2023/06/23 03:28:34;;;;;;;2.20;2.10;;;21.70;99.90;;;22.28;nan;100751.16;4974751;28;20979;-67
2023/06/23 03:31:07;;;;;;;10.00;2.80;;;21.70;99.90;;;22.27;nan;100754.84;4990594;28;20618;-68
2023/06/23 03:33:40;;;;;;;3.10;2.47;;;21.70;99.90;;;22.26;nan;100756.66;4991045;28;20677;-67
2023/06/23 03:36:19;;;;;;;3.47;2.90;;;21.70;99.90;;;22.26;nan;100756.66;4970650;28;20667;-67
2023/06/23 03:39:02;;;;;;;4.87;3.17;;;21.70;99.90;;;22.28;nan;100759.97;4992247;28;21162;-69
2023/06/23 03:41:31;;;;;;;3.30;3.00;;;21.70;99.90;;;22.29;nan;100766.09;4995637;28;20622;-67
2023/06/23 03:44:09;;;;;;;3.90;3.50;;;21.80;99.90;;;22.30;nan;100767.75;4990529;28;20673;-68
2023/06/23 03:46:54;;;;;;;3.80;2.53;;;21.70;99.90;;;22.34;nan;100772.50;4974643;28;20670;-69
2023/06/23 03:49:28;;;;;;;3.50;2.83;;;21.70;99.90;;;22.36;nan;100777.63;4967455;28;20661;-68
2023/06/23 03:51:59;;;;;;;6.87;3.17;;;21.80;99.90;;;22.39;nan;100782.59;4975983;28;20656;-66
2023/06/23 03:54:27;;;;;;;1.97;1.77;;;21.80;99.90;;;22.38;nan;100791.59;4991490;28;20606;-67
2023/06/23 03:56:56;;;;;;;4.67;2.97;;;21.90;99.90;;;22.35;nan;100807.91;4990146;28;20625;-67
2023/06/23 03:59:26;;;;;;;3.80;2.93;;;21.80;99.90;;;22.36;nan;100809.53;4967692;28;20634;-68
2023/06/23 04:01:55;;;;;;;3.57;2.90;;;21.80;99.90;;;22.35;nan;100807.91;4989142;28;21376;-70
2023/06/23 04:04:25;;;;;;;3.40;2.60;;;21.80;99.90;;;22.25;nan;100812.66;4972886;28;20634;-66
2023/06/23 04:06:53;;;;;;;3.30;2.97;;;21.70;99.90;;;22.20;nan;100826.50;4972301;28;20645;-68
2023/06/23 04:09:24;;;;;;;2.90;2.17;;;21.70;99.90;;;22.19;nan;100822.16;4966426;28;20673;-68
2023/06/23 04:11:54;;;;;;;5.10;3.30;;;21.60;99.90;;;22.19;nan;100818.72;4989935;28;21201;-68
2023/06/23 04:14:24;;;;;;;4.10;3.17;;;21.70;99.90;;;22.11;nan;100816.94;4989217;28;20634;-66
2023/06/23 04:16:54;;;;;;;3.23;2.80;;;21.60;99.90;;;22.08;nan;100821.78;4963728;28;20639;-67
2023/06/23 04:19:28;;;;;;;4.63;2.87;;;21.50;99.90;;;22.09;nan;100828.75;4989842;28;20626;-68
2023/06/23 04:21:57;;;;;;;2.90;2.70;;;21.50;99.90;;;22.09;nan;100820.78;4989421;28;20641;-67
2023/06/23 04:24:25;;;;;;;2.97;2.20;;;21.50;99.90;;;22.10;nan;100827.75;4973603;28;20625;-68
2023/06/23 04:26:55;;;;;;;1.77;1.67;;;21.50;99.90;;;22.15;nan;100836.00;4979979;28;20662;-67
2023/06/23 04:29:24;;;;;;;6.17;3.77;;;21.60;99.90;;;22.11;nan;100838.19;4954612;28;20682;-68
2023/06/23 04:31:54;;;;;;;5.23;3.50;;;21.60;99.90;;;22.09;nan;100842.03;4989804;28;20631;-67
2023/06/23 04:34:22;;;;;;;4.93;3.80;;;21.60;99.90;;;22.06;nan;100840.56;4970500;28;20619;-66
2023/06/23 04:37:05;;;;;;;6.53;4.13;;;21.60;99.90;;;22.00;nan;100849.25;4992805;28;21032;-68
2023/06/23 04:39:46;;;;;;;4.80;2.87;;;21.50;99.90;;;21.91;nan;100862.78;4980566;28;20626;-69
2023/06/23 04:42:18;;;;;;;5.63;2.50;;;21.40;99.90;;;21.89;nan;100859.50;4991704;28;20660;-68
2023/06/23 04:44:54;;;;;;;6.17;3.07;;;21.40;99.90;;;21.88;nan;100873.75;4973324;28;21226;-68
2023/06/23 04:47:25;;;;;;;2.17;1.60;;;21.30;99.90;;;21.86;nan;100879.25;4988821;28;20969;-68
2023/06/23 04:50:02;;;;;;;4.73;3.40;;;21.30;99.90;;;21.85;nan;100887.41;4972690;28;20657;-69
2023/06/23 04:52:34;;;;;;;4.40;3.77;;;21.30;99.90;;;21.86;nan;100883.75;4969408;28;20641;-68
2023/06/23 04:55:04;;;;;;;3.83;2.87;;;21.30;99.90;;;21.83;nan;100876.13;4972966;28;20661;-67
2023/06/23 04:57:34;;;;;;;11.03;2.90;;;21.30;99.90;;;21.80;nan;100881.75;4954226;28;20635;-67
2023/06/23 05:00:05;;;;;;;6.90;4.53;;;21.30;99.90;;;21.81;nan;100886.88;4954198;28;20606;-68
2023/06/23 05:02:33;;;;;;;3.13;2.80;;;21.30;99.90;;;21.77;nan;100884.75;4991143;28;21188;-68
2023/06/23 05:05:02;;;;;;;7.60;2.57;;;21.30;99.90;;;21.79;nan;100885.41;4962926;28;20659;-69
2023/06/23 05:07:30;;;;;;;4.83;3.63;;;21.20;99.90;;;21.77;nan;100882.09;4966199;28;20677;-68
2023/06/23 05:10:00;;;;;;;2.90;2.40;;;21.20;99.90;;;21.74;nan;100885.13;4965239;28;20677;-68
2023/06/23 05:12:28;;;;;;;1.50;1.37;;;21.20;99.90;;;21.76;nan;100883.94;4986442;28;21089;-68
2023/06/23 05:14:57;;;;;;;5.83;3.43;;;21.20;99.90;;;21.78;nan;100892.56;4967330;28;20674;-68
2023/06/23 05:17:26;;;;;;;5.33;2.77;;;21.20;99.90;;;21.79;nan;100877.44;4987580;28;21228;-68
2023/06/23 05:19:56;;;;;;;5.20;4.20;;;21.30;99.90;;;21.75;nan;100884.94;4980631;28;21201;-66
2023/06/23 05:22:26;;;;;;;6.33;2.87;;;21.20;99.90;;;21.76;nan;100897.22;4974017;28;20641;-67
2023/06/23 05:24:59;;;;;;;3.03;2.47;;;21.20;99.90;;;21.84;nan;100899.03;4971351;28;20682;-67
2023/06/23 05:27:30;;;;;;;7.10;4.97;;;21.30;99.90;;;21.91;nan;100905.28;4968337;28;20638;-67
2023/06/23 05:29:59;;;;;;;5.50;3.30;;;21.40;99.90;;;21.89;nan;100916.06;4968153;28;21188;-68
2023/06/23 05:32:30;;;;;;;4.80;3.43;;;21.40;99.90;;;21.89;nan;100921.38;4983085;28;20642;-68
2023/06/23 05:35:02;;;;;;;4.90;3.63;;;21.40;99.90;;;21.87;nan;100917.28;4983189;28;20672;-69
2023/06/23 05:37:33;;;;;;;4.10;2.70;;;21.30;99.90;;;21.88;nan;100926.88;4988111;28;20653;-67
2023/06/23 05:40:03;;;;;;;2.87;2.67;;;21.40;99.90;;;21.89;nan;100923.25;4972306;28;20999;-68
2023/06/23 05:42:32;;;;;;;4.10;3.50;;;21.40;99.90;;;21.86;nan;100926.25;4952083;28;20627;-66
2023/06/23 05:45:04;;;;;;;3.30;3.00;;;21.30;99.90;;;21.88;nan;100937.50;4988768;28;21274;-68
2023/06/23 05:47:59;;;;;;;3.17;2.83;;;21.40;99.90;;;21.94;nan;100947.44;4973530;28;21013;-66
2023/06/23 05:50:35;;;;;;;4.07;2.30;;;21.40;99.90;;;21.97;nan;100947.09;4988653;28;20701;-66
2023/06/23 05:53:21;;;;;;;4.13;2.73;;;21.40;99.90;;;21.95;nan;100949.94;4974505;28;20650;-67
2023/06/23 05:56:08;;;;;;;3.10;2.83;;;21.40;99.90;;;22.03;nan;100949.03;4967302;28;20658;-67
2023/06/23 05:58:41;;;;;;;1.77;1.60;;;21.50;99.90;;;22.07;nan;100947.69;4982219;28;20700;-68
2023/06/23 06:01:15;;;;;;;2.67;2.43;;;21.50;99.90;;;22.45;nan;100949.38;4969495;28;20644;-67
2023/06/23 06:04:07;;;;;;;2.90;2.50;;;21.80;99.90;;;22.79;nan;100959.56;4972460;28;20677;-67
2023/06/23 06:06:36;;;;;;;2.87;2.30;;;22.20;99.90;;;23.03;nan;100960.16;4986046;28;20650;-68
2023/06/23 06:09:10;;;;;;;1.33;1.23;;;22.50;99.90;;;23.10;nan;100966.41;4974311;28;20655;-69
2023/06/23 06:11:38;;;;;;;3.13;2.80;;;22.60;99.90;;;23.35;nan;100971.47;4992676;28;20598;-68
2023/06/23 06:14:10;;;;;;;2.13;2.03;;;22.70;99.90;;;23.61;nan;100977.97;4992957;28;20641;-68
2023/06/23 06:16:39;;;;;;;3.07;2.77;;;22.90;99.90;;;23.95;nan;100987.19;4991650;28;20658;-68
2023/06/23 06:19:07;;;;;;;2.27;2.10;;;23.30;99.90;;;24.14;nan;100991.94;4971388;28;20634;-67
2023/06/23 06:21:37;;;;;;;1.70;1.60;;;23.50;99.90;;;24.56;nan;100995.41;4992898;28;21417;-67
2023/06/23 06:24:09;;;;;;;3.53;2.63;;;23.90;99.90;;;25.09;nan;101006.50;4990881;28;21212;-66
2023/06/23 06:26:37;;;;;;;2.10;2.00;;;24.40;99.70;;;25.62;nan;101003.16;4993826;28;20654;-66
2023/06/23 06:29:06;;;;;;;3.13;2.83;;;24.90;99.30;;;26.24;nan;101020.91;4992165;28;20637;-66
2023/06/23 06:31:34;;;;;;;3.07;2.80;;;25.50;98.20;;;26.42;nan;101005.91;4982426;28;20669;-67
2023/06/23 06:34:03;;;;;;;4.60;2.40;;;25.80;97.20;;;26.27;nan;101021.31;4995903;28;21227;-68
2023/06/23 06:36:34;;;;;;;2.47;2.27;;;25.80;96.90;;;26.09;nan;101016.53;4993371;28;20676;-67
2023/06/23 06:39:02;;;;;;;3.50;3.20;;;25.60;96.80;;;25.75;nan;101016.56;4997125;28;20614;-68
2023/06/23 06:41:34;;;;;;;2.80;2.60;;;25.30;97.40;;;25.61;nan;101028.25;4980266;28;20970;-68
2023/06/23 06:44:03;;;;;;;2.30;1.87;;;25.10;97.20;;;25.82;nan;101030.81;4977337;28;20637;-68
2023/06/23 06:46:30;;;;;;;3.33;1.47;;;25.30;96.70;;;26.21;nan;101037.34;4994318;28;20751;-68
2023/06/23 06:48:58;;;;;;;1.50;1.40;;;25.60;95.90;;;26.67;nan;101046.25;4989099;28;20709;-68
2023/06/23 06:51:27;;;;;;;2.83;2.60;;;26.10;95.20;;;26.76;nan;101045.06;4983162;28;20668;-68
2023/06/23 06:53:54;;;;;;;4.37;3.10;;;26.20;94.80;;;27.35;nan;101045.84;4991134;28;21307;-67
2023/06/23 06:56:21;;;;;;;2.90;2.47;;;26.70;94.30;;;27.57;nan;101057.16;4995103;28;21166;-67
2023/06/23 06:58:49;;;;;;;6.30;2.00;;;27.00;93.80;;;27.49;nan;101066.22;4990836;28;20639;-67
2023/06/23 07:01:16;;;;;;;2.80;2.60;;;27.00;93.20;;;27.38;nan;101066.88;4987947;28;20634;-66
2023/06/23 07:03:44;;;;;;;2.57;2.37;;;26.90;92.90;;;27.02;nan;101071.00;4974965;28;20668;-67
2023/06/23 07:06:13;;;;;;;1.30;1.20;;;26.60;93.00;;;26.62;nan;101067.47;4975469;28;20669;-66
2023/06/23 07:08:42;;;;;;;2.57;2.37;;;26.30;93.20;;;26.58;nan;101072.38;4986580;28;20654;-67
2023/06/23 07:11:10;;;;;;;2.50;1.40;;;26.10;93.50;;;26.81;nan;101077.41;4989757;28;21045;-67
2023/06/23 07:13:37;;;;;;;2.60;2.40;;;26.30;93.50;;;27.36;nan;101079.69;4993952;28;21780;-68
2023/06/23 07:16:05;;;;;;;2.50;1.80;;;26.70;92.90;;;27.71;nan;101085.56;4990364;28;21237;-66
2023/06/23 07:18:32;;;;;;;1.90;1.80;;;27.10;92.20;;;28.41;nan;101079.28;4978680;28;20627;-67
2023/06/23 07:21:00;;;;;;;2.90;2.50;;;27.70;91.60;;;29.46;nan;101083.84;4989146;28;20641;-66
2023/06/23 07:23:27;;;;;;;2.90;2.70;;;28.70;90.00;;;31.21;nan;101087.06;4991025;28;20645;-66
2023/06/23 07:25:54;;;;;;;1.33;1.30;;;30.30;86.50;;;32.48;nan;101091.41;4989836;28;20666;-67
2023/06/23 07:28:21;;;;;;;1.73;1.63;;;31.80;79.90;;;32.33;nan;101101.94;4992277;28;20614;-66
2023/06/23 07:30:50;;;;;;;2.83;2.63;;;31.80;76.40;;;31.87;nan;101101.00;4989039;28;20677;-67
2023/06/23 07:33:17;;;;;;;2.50;2.30;;;31.40;76.10;;;31.77;nan;101090.00;4995295;28;20649;-65
2023/06/23 07:35:44;;;;;;;2.90;2.63;;;31.30;75.20;;;31.84;nan;101106.03;4988262;28;20674;-67
2023/06/23 07:38:11;;;;;;;1.83;1.73;;;31.30;75.00;;;32.08;nan;101094.97;4994449;28;20633;-68
2023/06/23 07:40:38;;;;;;;1.33;1.23;;;31.40;74.00;;;32.65;nan;101103.06;4993099;28;20630;-68
2023/06/23 07:43:05;;;;;;;2.90;2.20;;;32.00;71.80;;;32.95;nan;101113.56;4987445;28;20640;-67
2023/06/23 07:45:32;;;;;;;3.00;1.77;;;32.30;70.90;;;32.87;nan;101114.81;4992073;28;21365;-68
2023/06/23 07:47:59;;;;;;;1.83;1.73;;;32.50;69.60;;;32.69;nan;101109.66;4997733;28;20649;-67
2023/06/23 07:50:26;;;;;;;1.80;1.70;;;32.40;69.40;;;32.50;nan;101116.31;4986835;28;21428;-67
2023/06/23 07:52:54;;;;;;;2.73;2.13;;;32.20;68.90;;;31.84;nan;101112.25;4988093;28;21229;-66
2023/06/23 07:55:21;;;;;;;2.50;2.30;;;31.50;69.50;;;31.62;nan;101111.25;4990448;28;20654;-66
2023/06/23 07:57:49;;;;;;;2.30;2.10;;;31.10;70.40;;;32.07;nan;101116.81;4990621;28;20986;-67
2023/06/23 08:00:17;;;;;;;2.17;1.93;;;31.50;69.20;;;33.63;nan;101133.88;4974365;28;20630;-68
2023/06/23 08:02:44;;;;;;;2.00;1.90;;;32.80;67.70;;;35.27;nan;101133.53;4989815;28;20647;-67
2023/06/23 08:05:11;;;;;;;2.40;2.20;;;34.50;65.10;;;35.88;nan;101134.72;4988918;28;20666;-67
2023/06/23 08:07:39;;;;;;;1.80;1.70;;;35.30;62.40;;;35.97;nan;101141.31;4985864;28;21254;-68
2023/06/23 08:10:07;;;;;;;4.00;1.70;;;35.50;60.80;;;35.26;nan;101137.31;4991096;28;20630;-67
2023/06/23 08:12:35;;;;;;;2.37;2.27;;;35.00;60.80;;;35.54;nan;101151.38;4990104;28;21194;-67
2023/06/23 08:15:04;;;;;;;1.40;1.40;;;35.10;59.80;;;35.96;nan;101147.81;4990417;28;20701;-67
2023/06/23 08:17:31;;;;;;;2.97;2.77;;;35.70;58.60;;;35.88;nan;101151.00;4972572;28;20638;-67
2023/06/23 08:19:58;;;;;;;1.33;1.23;;;35.60;58.50;;;34.64;nan;101158.72;4991235;28;20614;-66
2023/06/23 08:22:25;;;;;;;2.70;2.50;;;34.60;59.40;;;32.71;nan;101161.56;4989432;28;20670;-66
2023/06/23 08:24:52;;;;;;;3.43;3.13;;;32.80;60.90;;;31.50;nan;101169.75;4992866;28;20688;-65
2023/06/23 08:27:20;;;;;;;3.30;3.10;;;31.40;63.20;;;31.35;nan;101156.72;4992223;28;21468;-66
2023/06/23 08:29:47;;;;;;;3.90;3.50;;;31.20;63.20;;;31.67;nan;101162.59;4984846;28;20625;-65
2023/06/23 08:32:14;;;;;;;3.00;2.80;;;31.30;62.70;;;32.38;nan;101164.94;4992578;28;20630;-66
2023/06/23 08:34:41;;;;;;;2.47;2.33;;;31.80;62.10;;;32.93;nan;101165.19;4989886;28;20599;-66
2023/06/23 08:37:08;;;;;;;2.40;2.30;;;32.50;61.40;;;33.68;nan;101173.75;4991005;28;21221;-67
2023/06/23 08:39:35;;;;;;;3.00;2.00;;;33.30;60.50;;;33.23;nan;101171.13;4991220;28;20635;-67
2023/06/23 08:42:02;;;;;;;3.33;2.00;;;33.10;60.00;;;32.14;nan;101174.16;4989093;28;20650;-66
2023/06/23 08:44:33;;;;;;;2.20;2.10;;;32.00;61.30;;;31.31;nan;101178.97;4999736;28;21195;-66
2023/06/23 08:47:04;;;;;;;2.30;2.20;;;31.10;63.30;;;30.32;nan;101178.75;4998936;28;20619;-66
2023/06/23 08:49:38;;;;;;;2.20;2.10;;;30.00;65.00;;;29.77;nan;101177.91;4991216;28;20641;-66
2023/06/23 08:52:06;;;;;;;2.13;2.03;;;29.40;66.40;;;30.97;nan;101175.16;5000062;28;21274;-67
2023/06/23 08:54:35;;;;;;;3.20;2.33;;;30.20;66.00;;;32.00;nan;101176.34;4991246;28;20649;-67
2023/06/23 08:57:03;;;;;;;1.87;1.70;;;31.20;64.20;;;33.61;nan;101173.91;4990179;28;20614;-67
2023/06/23 08:59:30;;;;;;;2.57;2.47;;;32.80;61.90;;;35.02;nan;101174.81;4990573;28;20641;-68
2023/06/23 09:01:57;;;;;;;3.07;2.00;;;34.10;59.70;;;36.30;nan;101185.16;4966952;28;21201;-67
2023/06/23 09:04:24;;;;;;;2.13;2.03;;;35.50;57.70;;;37.37;nan;101194.34;4983088;28;20632;-65
2023/06/23 09:06:52;;;;;;;1.90;1.80;;;36.70;55.90;;;37.53;nan;101185.06;4997276;28;20633;-67
2023/06/23 09:09:20;;;;;;;2.13;2.03;;;37.00;54.70;;;38.02;nan;101199.66;4983609;28;20970;-67
2023/06/23 09:11:47;;;;;;;2.10;2.00;;;37.40;54.20;;;38.36;nan;101194.34;4957170;28;20651;-66
2023/06/23 09:14:15;;;;;;;2.00;1.90;;;37.90;53.40;;;39.46;nan;101190.03;4988987;28;20634;-68
2023/06/23 09:16:42;;;;;;;1.73;1.63;;;39.00;51.90;;;39.11;nan;101191.16;4999101;28;20723;-68
2023/06/23 09:19:09;;;;;;;2.43;2.00;;;39.00;51.00;;;39.08;nan;101202.63;4993158;28;20621;-68
2023/06/23 09:21:37;;;;;;;2.10;2.00;;;38.90;50.80;;;39.46;nan;101207.22;4988627;28;20654;-65
2023/06/23 09:24:06;;;;;;;1.93;1.83;;;39.20;50.60;;;39.40;nan;101202.91;4990283;28;21057;-67
2023/06/23 09:26:51;;;;;;;2.10;2.00;;;39.30;49.40;;;39.90;nan;101198.06;4990275;28;20658;-68
2023/06/23 09:29:23;;;;;;;2.60;2.50;;;39.40;49.30;;;39.69;nan;101193.91;4977802;28;20640;-67
2023/06/23 09:31:53;;;;;;;2.13;1.90;;;39.60;49.00;;;38.42;nan;101204.16;4995193;28;20649;-68
2023/06/23 09:34:21;;;;;;;2.60;2.50;;;38.60;49.40;;;38.05;nan;101210.84;4997899;28;20991;-66
2023/06/23 09:36:48;;;;;;;1.80;1.70;;;38.00;49.60;;;38.40;nan;101201.69;4986205;28;20642;-65
2023/06/23 09:39:16;;;;;;;2.63;1.90;;;38.30;49.40;;;37.42;nan;101195.16;4961513;28;20633;-66
2023/06/23 09:41:56;;;;;;;2.07;1.97;;;37.60;49.70;;;37.12;nan;101195.16;4992545;28;20634;-65
2023/06/23 09:44:42;;;;;;;1.77;1.70;;;37.10;50.50;;;36.57;nan;101198.56;5011723;28;20647;-66
2023/06/23 09:47:10;;;;;;;2.10;2.00;;;36.70;50.70;;;37.75;nan;101193.72;4995606;28;20618;-66
2023/06/23 09:49:39;;;;;;;2.37;2.27;;;37.20;50.40;;;38.45;nan;101200.84;4992641;28;20649;-65
2023/06/23 09:52:08;;;;;;;1.90;1.80;;;38.10;49.30;;;36.34;nan;101186.25;4988157;28;21036;-67
2023/06/23 09:54:39;;;;;;;2.30;2.20;;;36.50;50.10;;;35.84;nan;101194.97;4991648;28;20624;-67
2023/06/23 09:57:14;;;;;;;1.70;1.60;;;35.70;51.10;;;36.13;nan;101195.41;5007471;28;20962;-67
2023/06/23 09:59:44;;;;;;;2.00;1.90;;;35.60;51.00;;;37.04;nan;101198.41;4995152;28;20625;-67
2023/06/23 10:02:26;;;;;;;2.90;1.90;;;36.30;50.60;;;37.65;nan;101205.47;4993180;28;20610;-66
2023/06/23 10:05:08;;;;;;;1.97;1.87;;;37.00;50.10;;;36.90;nan;101191.88;4975273;28;21033;-66
2023/06/23 10:07:35;;;;;;;2.40;2.27;;;36.90;49.70;;;35.64;nan;101205.72;4991824;28;20644;-67
2023/06/23 10:10:07;;;;;;;2.33;2.23;;;35.30;50.70;;;34.43;nan;101203.72;4993276;28;20622;-66
2023/06/23 10:12:39;;;;;;;2.80;2.60;;;34.10;52.40;;;33.60;nan;101203.94;4991554;28;21150;-67
2023/06/23 10:15:08;;;;;;;2.20;2.00;;;33.20;52.70;;;32.93;nan;101192.22;4992863;28;20642;-67
2023/06/23 10:17:36;;;;;;;2.37;2.17;;;32.50;54.10;;;32.43;nan;101189.38;4971446;28;20631;-67
2023/06/23 10:20:05;;;;;;;2.10;2.00;;;31.90;54.70;;;31.55;nan;101207.66;4973401;28;20627;-65
2023/06/23 10:22:36;;;;;;;2.17;1.87;;;31.10;56.20;;;30.83;nan;101195.25;4987198;28;20694;-66
2023/06/23 10:25:13;;;;;;;1.77;1.77;;;30.40;57.90;;;30.34;nan;101208.97;4979965;28;20680;-67
2023/06/23 10:27:42;;;;;;;2.13;1.90;;;29.80;58.60;;;30.30;nan;101210.44;4999177;28;20636;-67
2023/06/23 10:30:13;;;;;;;2.10;2.00;;;29.60;58.70;;;30.19;nan;101203.09;4975725;28;20652;-67
2023/06/23 10:32:49;;;;;;;1.63;1.53;;;29.60;58.80;;;30.19;nan;101203.94;4992717;28;20634;-66
2023/06/23 10:35:21;;;;;;;2.10;2.00;;;29.50;58.70;;;30.10;nan;101216.03;4990878;28;20650;-66
2023/06/23 10:37:50;;;;;;;2.50;1.43;;;29.50;58.10;;;29.80;nan;101212.41;4993178;28;20650;-67
2023/06/23 10:40:22;;;;;;;2.30;1.80;;;29.30;59.30;;;29.58;nan;101216.53;4988354;28;20630;-67